Latest Weather Observations for Brisbane Airport

IDQ60901

Issued at 12:11 pm EST Monday 8 February 2016 (issued every 10 minutes, with the page automatically refreshed every 10 minutes)

About weather observations | Map of Brisbane area stations | Latest observations for Brisbane area | Other Formats
Station Details ID: 040842 Name: BRISBANE AERO Lat: -27.39 Lon: 153.13 Height: 4.51 m
Data from the previous 72 hours. | See also: Recent months at Brisbane Airport
Date/Time
EST
Tmp

°C
App
Tmp
°C
Dew
Point
°C
Rel
Hum
%
Delta-T

°C
Wind Press
QNH
hPa
Press
MSL
hPa
Rain
since
9 am
mm
Dir
 
Spd
km/h
Gust
km/h
Spd
kts
Gust
kts
08/12:00pm 27.2 25.2 17.5 55 6.1 ESE 24 37 13 20 1014.1 1014.1 0.0
08/11:30am 27.2 25.8 17.1 54 6.3 ESE 20 33 11 18 1014.3 1014.3 0.0
08/11:00am 27.4 25.7 16.2 50 6.9 ESE 20 32 11 17 1014.7 1014.7 0.0
08/10:30am 28.3 26.5 14.5 43 8.3 ESE 17 30 9 16 1015.0 1015.0 0.0
08/10:00am 27.0 26.3 15.5 49 7.0 S 13 24 7 13 1015.4 1015.4 0.0
08/09:30am 26.4 24.6 14.5 48 7.1 S 17 28 9 15 1015.6 1015.6 0.0
08/09:00am 26.3 24.6 14.8 49 6.9 SSE 17 26 9 14 1015.6 1015.6 0.0
08/08:30am 25.3 24.0 15.7 55 5.8 SSW 17 26 9 14 1015.7 1015.7 0.0
08/08:00am 24.6 23.4 16.2 59 5.1 SSW 17 26 9 14 1015.5 1015.5 0.0
08/07:30am 23.8 22.7 16.4 63 4.5 SSW 17 28 9 15 1015.5 1015.5 0.0
08/07:00am 22.4 21.4 16.5 69 3.6 SSW 17 22 9 12 1015.3 1015.3 0.0
08/06:30am 21.3 21.2 16.9 76 2.7 SSW 13 19 7 10 1015.0 1015.0 0.0
08/06:00am 19.0 18.4 16.7 86 1.4 SW 15 19 8 10 1014.8 1014.8 0.0
08/05:30am 19.1 18.4 16.3 84 1.7 SSW 15 19 8 10 1014.2 1014.2 0.0
08/05:00am 19.7 19.4 16.4 81 2.0 SSW 13 17 7 9 1014.1 1014.1 0.0
08/04:30am 19.5 19.2 16.5 83 1.8 SSW 13 17 7 9 1014.1 1014.1 0.0
08/04:00am 19.3 19.4 16.6 84 1.6 SSW 11 15 6 8 1014.2 1014.2 0.0
08/03:30am 20.7 20.3 16.2 75 2.7 SSW 13 17 7 9 1014.1 1014.1 0.0
08/03:00am 20.5 20.0 16.0 75 2.7 SSW 13 17 7 9 1014.2 1014.2 0.0
08/02:30am 19.9 19.6 16.4 80 2.1 SSW 13 15 7 8 1014.3 1014.3 0.0
08/02:00am 21.5 21.5 16.2 72 3.2 SSW 11 15 6 8 1014.4 1014.4 0.0
08/01:30am 21.4 21.4 16.3 72 3.1 SSW 11 15 6 8 1014.6 1014.6 0.0
08/01:00am 21.7 21.7 16.2 71 3.3 SSW 11 15 6 8 1014.7 1014.7 0.0
08/12:30am 22.0 22.0 16.2 69 3.5 S 11 15 6 8 1015.0 1015.0 0.0
08/12:00am 22.4 22.0 16.1 67 3.8 SSW 13 17 7 9 1015.4 1015.4 0.0
 
Date/Time
EST
Tmp

°C
App
Tmp
°C
Dew
Point
°C
Rel
Hum
%
Delta-T

°C
Wind Press
QNH
hPa
Press
MSL
hPa
Rain
since
9 am
mm
Dir
 
Spd
km/h
Gust
km/h
Spd
kts
Gust
kts
07/11:30pm 22.5 22.1 16.2 67 3.8 S 13 19 7 10 1015.4 1015.4 0.0
07/11:00pm 22.5 22.2 16.4 68 3.7 S 13 20 7 11 1015.3 1015.3 0.0
07/10:30pm 22.8 22.9 16.6 68 3.8 S 11 17 6 9 1015.3 1015.3 0.0
07/10:00pm 23.0 22.8 16.6 67 3.9 S 13 17 7 9 1015.2 1015.2 0.0
07/09:30pm 23.4 23.1 16.5 65 4.2 SSE 13 19 7 10 1015.1 1015.1 0.0
07/09:00pm 23.5 23.3 16.8 66 4.1 SSE 13 20 7 11 1015.1 1015.1 0.0
07/08:30pm 24.2 23.6 16.7 63 4.6 SSE 15 28 8 15 1014.9 1014.9 0.0
07/08:00pm 24.8 23.4 16.5 60 5.1 SE 19 32 10 17 1014.6 1014.6 0.0
07/07:30pm 25.1 24.0 16.3 58 5.4 SE 17 30 9 16 1014.6 1014.6 0.0
07/07:00pm 25.3 23.4 15.8 55 5.8 SE 20 33 11 18 1014.1 1014.1 0.0
07/06:30pm 25.2 24.3 15.8 56 5.7 SE 15 20 8 11 1013.6 1013.6 0.0
07/06:00pm 25.4 24.2 16.1 56 5.7 SE 17 28 9 15 1013.3 1013.3 0.0
07/05:30pm 25.5 24.1 16.6 58 5.5 SSE 19 28 10 15 1012.9 1012.9 0.0
07/05:00pm 25.7 24.9 17.0 58 5.4 SE 17 33 9 18 1012.8 1012.8 0.0
07/04:30pm 26.2 25.4 17.0 57 5.7 SE 17 32 9 17 1012.5 1012.5 0.0
07/04:00pm 26.0 25.6 18.1 61 5.0 SE 17 30 9 16 1012.4 1012.4 0.0
07/03:30pm 25.8 24.8 17.9 61 5.0 SE 20 32 11 17 1012.3 1012.3 0.0
07/03:00pm 26.0 25.1 18.3 62 4.9 ESE 20 35 11 19 1012.4 1012.4 0.0
07/02:30pm 26.3 24.6 18.1 60 5.2 ESE 24 35 13 19 1012.6 1012.6 0.0
07/02:00pm 27.4 26.3 18.7 59 5.6 ESE 22 33 12 18 1012.7 1012.7 0.0
07/01:30pm 27.0 25.7 18.2 58 5.6 ESE 22 35 12 19 1012.9 1012.9 0.0
07/01:00pm 27.2 26.5 18.6 59 5.5 SE 20 37 11 20 1012.7 1012.7 0.0
07/12:30pm 26.9 26.2 18.6 60 5.3 SE 20 33 11 18 1012.9 1012.9 0.0
07/12:00pm 26.2 25.5 18.3 61 5.0 SE 19 30 10 16 1013.0 1013.0 0.0
07/11:30am 26.4 25.8 18.4 61 5.1 SSE 19 32 10 17 1013.0 1013.0 0.0
07/11:00am 26.2 25.5 18.3 61 5.0 SSE 19 33 10 18 1012.9 1012.9 0.0
07/10:30am 26.3 26.1 18.4 61 5.0 SE 17 26 9 14 1013.1 1013.1 0.0
07/10:00am 26.0 25.3 18.3 62 4.9 SSE 19 32 10 17 1013.4 1013.4 0.0
07/09:30am 26.2 26.0 18.5 62 4.9 SSE 17 30 9 16 1013.4 1013.4 0.0
07/09:00am 25.8 25.1 18.2 63 4.8 SSE 19 32 10 17 1013.4 1013.4 0.2
07/08:30am 26.3 25.9 18.8 63 4.8 SSE 19 33 10 18 1013.3 1013.3 0.2
07/08:00am 24.5 24.1 18.8 70 3.6 S 19 28 10 15 1013.2 1013.2 0.2
07/07:30am 23.7 24.1 19.0 75 3.0 S 15 26 8 14 1012.8 1012.8 0.2
07/07:00am 23.4 23.0 18.8 75 2.9 S 19 26 10 14 1012.9 1012.9 0.2
07/06:30am 22.3 23.3 19.5 84 1.8 SSW 13 19 7 10 1012.9 1012.9 0.2
07/06:00am 21.8 22.7 19.3 86 1.6 SSW 13 17 7 9 1012.5 1012.5 0.2
07/05:30am 21.8 22.4 19.4 86 1.5 SSW 15 20 8 11 1012.3 1012.3 0.2
07/05:00am 21.7 22.1 19.8 89 1.2 SSW 17 22 9 12 1012.0 1012.0 0.2
07/04:30am 22.5 22.7 19.4 82 2.0 S 17 26 9 14 1011.6 1011.6 0.2
07/04:00am 22.3 23.2 20.1 87 1.4 S 15 24 8 13 1011.4 1011.4 0.2
07/03:30am 22.5 23.7 20.0 86 1.6 S 13 19 7 10 1011.4 1011.4 0.2
07/03:00am 22.5 23.5 20.3 87 1.4 S 15 22 8 12 1011.4 1011.4 0.2
07/02:30am 22.5 24.1 20.7 89 1.2 S 13 22 7 12 1011.3 1011.3 0.2
07/02:00am 22.6 24.1 20.6 88 1.3 SSW 13 17 7 9 1011.4 1011.4 0.2
07/01:30am 22.4 24.7 20.7 90 1.1 S 9 15 5 8 1011.1 1011.1 0.2
07/01:00am 22.5 24.1 20.7 89 1.2 S 13 17 7 9 1011.0 1011.0 0.2
07/12:30am 22.4 24.5 20.9 91 1.0 S 11 17 6 9 1011.5 1011.5 0.2
07/12:00am 22.3 24.4 20.9 92 0.9 S 11 17 6 9 1011.8 1011.8 0.2
 
Date/Time
EST
Tmp

°C
App
Tmp
°C
Dew
Point
°C
Rel
Hum
%
Delta-T

°C
Wind Press
QNH
hPa
Press
MSL
hPa
Rain
since
9 am
mm
Dir
 
Spd
km/h
Gust
km/h
Spd
kts
Gust
kts
06/11:30pm 22.4 24.9 21.0 92 0.9 S 9 13 5 7 1012.2 1012.2 0.2
06/11:00pm 22.5 24.7 21.1 92 0.9 S 11 17 6 9 1012.7 1012.7 0.2
06/10:30pm 22.6 24.4 21.2 92 0.9 S 13 19 7 10 1013.0 1013.0 0.2
06/10:00pm 22.8 24.6 21.1 90 1.1 SSW 13 15 7 8 1013.1 1013.1 0.0
06/09:30pm 22.8 24.6 21.1 90 1.1 S 13 19 7 10 1013.0 1013.0 0.0
06/09:00pm 23.1 25.1 20.8 87 1.5 SSE 11 17 6 9 1012.6 1012.6 0.0
06/08:30pm 23.3 24.8 20.5 84 1.8 SSE 13 20 7 11 1012.4 1012.4 0.0
06/08:00pm 23.2 24.9 20.9 87 1.5 S 13 19 7 10 1012.2 1012.2 0.0
06/07:30pm 23.6 25.5 21.3 87 1.5 S 13 20 7 11 1011.6 1011.6 0.0
06/07:00pm 23.9 24.4 21.2 85 1.8 SE 20 33 11 18 1011.3 1011.3 0.0
06/06:30pm 24.6 25.8 20.6 78 2.6 SE 15 28 8 15 1010.8 1010.8 0.0
06/06:00pm 23.5 24.3 20.7 84 1.8 SSE 17 30 9 16 1010.6 1010.6 0.0
06/05:30pm 24.7 25.1 20.7 78 2.6 SE 19 32 10 17 1010.2 1010.2 0.0
06/05:00pm 24.9 25.8 20.8 78 2.7 SE 17 33 9 18 1009.7 1009.7 0.0
06/04:30pm 25.9 26.5 21.1 75 3.2 ESE 19 37 10 20 1009.4 1009.4 0.0
06/04:00pm 26.7 26.9 20.6 69 4.0 ESE 20 33 11 18 1009.3 1009.3 0.0
06/03:30pm 26.6 26.4 19.8 66 4.4 ESE 20 35 11 19 1009.3 1009.3 0.0
06/03:00pm 27.0 26.7 20.3 66 4.4 SE 22 33 12 18 1009.3 1009.3 0.0
06/02:30pm 27.2 26.5 20.3 66 4.5 SE 24 43 13 23 1009.4 1009.4 0.0
06/02:00pm 27.9 27.3 20.6 64 4.8 ESE 24 39 13 21 1009.6 1009.6 0.0
06/01:30pm 27.7 27.0 20.2 63 4.9 ESE 24 37 13 20 1009.8 1009.8 0.0
06/01:00pm 28.4 27.5 20.7 63 5.1 ESE 26 37 14 20 1009.9 1009.9 0.0
06/12:30pm 28.0 27.9 20.7 64 4.8 ESE 22 37 12 20 1010.1 1010.1 0.0
06/12:00pm 27.8 27.2 20.5 64 4.8 ESE 24 43 13 23 1010.5 1010.5 0.0
06/11:30am 28.0 28.1 20.4 63 5.0 ESE 20 33 11 18 1010.6 1010.6 0.0
06/11:00am 27.0 26.8 20.6 68 4.2 ESE 22 33 12 18 1011.0 1011.0 0.0
06/10:30am 28.1 28.1 21.0 65 4.7 ESE 22 33 12 18 1011.0 1011.0 0.0
06/10:00am 26.5 26.2 20.4 69 4.0 SE 22 35 12 19 1011.2 1011.2 0.0
06/09:30am 26.3 26.9 21.0 72 3.5 SE 19 32 10 17 1011.1 1011.1 0.0
06/09:00am 25.6 26.5 20.9 75 3.1 SSE 17 33 9 18 1011.0 1011.0 3.2
06/08:30am 24.3 25.4 21.3 83 2.0 SSE 17 28 9 15 1011.1 1011.1 3.2
06/08:00am 23.9 25.0 21.3 85 1.7 S 17 28 9 15 1011.1 1011.1 3.2
06/07:30am 23.1 25.1 21.6 91 1.0 SSE 13 20 7 11 1010.9 1010.9 3.2
06/07:00am 22.4 23.7 20.9 91 1.0 S 15 20 8 11 1010.5 1010.5 3.2
06/06:30am 22.3 23.8 21.2 93 0.7 S 15 22 8 12 1010.4 1010.4 3.2
06/06:00am 21.6 22.5 20.8 95 0.5 S 17 24 9 13 1010.1 1010.1 3.2
06/05:37am 21.4 22.7 20.8 96 0.4 S 15 24 8 13 1009.8 1009.8 1.6
06/05:30am 21.6 23.2 20.7 95 0.6 S 13 26 7 14 1009.6 1009.6 0.8
06/05:00am 21.7 22.5 20.6 93 0.7 SSE 17 26 9 14 1009.1 1009.1 0.2
06/04:30am 21.8 22.4 20.3 91 1.0 SSE 17 30 9 16 1008.8 1008.8 0.0
06/04:00am 21.9 22.8 20.0 89 1.2 S 15 28 8 15 1008.7 1008.7 0.0
06/03:30am 22.1 22.6 20.1 88 1.3 SSE 17 30 9 16 1008.6 1008.6 0.0
06/03:00am 22.4 22.8 19.8 85 1.7 SSE 17 30 9 16 1008.4 1008.4 0.0
06/02:30am 22.4 22.8 19.9 86 1.6 SSE 17 26 9 14 1008.6 1008.6 0.0
06/02:00am 22.4 22.5 19.9 86 1.6 SSE 19 32 10 17 1008.9 1008.9 0.0
06/01:30am 22.8 23.0 19.4 81 2.2 SSE 17 26 9 14 1009.0 1009.0 0.0
06/01:00am 23.6 23.1 18.7 74 3.1 SSE 19 33 10 18 1009.1 1009.1 0.0
06/12:30am 23.8 23.4 18.8 73 3.2 SSE 19 32 10 17 1009.4 1009.4 0.0
06/12:00am 23.8 23.8 18.9 74 3.1 SSE 17 33 9 18 1009.5 1009.5 0.0
 
Date/Time
EST
Tmp

°C
App
Tmp
°C
Dew
Point
°C
Rel
Hum
%
Delta-T

°C
Wind Press
QNH
hPa
Press
MSL
hPa
Rain
since
9 am
mm
Dir
 
Spd
km/h
Gust
km/h
Spd
kts
Gust
kts
05/11:30pm 24.0 23.6 18.8 72 3.3 SSE 19 37 10 20 1010.0 1010.0 0.0
05/11:00pm 24.0 23.5 19.0 73 3.2 SSE 20 43 11 23 1010.5 1010.5 0.0
05/10:30pm 23.9 23.5 19.0 74 3.1 SSE 19 32 10 17 1010.6 1010.6 0.0
05/10:00pm 23.9 23.5 19.0 74 3.1 S 19 30 10 16 1010.6 1010.6 0.0
05/09:30pm 24.0 24.1 19.1 74 3.1 SSE 17 37 9 20 1010.7 1010.7 0.0
05/09:00pm 24.3 24.0 19.1 73 3.3 SSE 19 33 10 18 1010.7 1010.7 0.0
05/08:30pm 24.4 24.1 19.2 73 3.3 SSE 19 39 10 21 1010.5 1010.5 0.0
05/08:00pm 24.9 24.7 19.3 71 3.6 SSE 19 30 10 16 1010.1 1010.1 0.0
05/07:30pm 24.9 24.6 19.6 72 3.4 SSE 20 32 11 17 1009.6 1009.6 0.0
05/07:00pm 24.8 25.1 19.5 72 3.4 SSE 17 30 9 16 1009.3 1009.3 0.0
05/06:43pm 24.8 23.7 19.5 72 3.4 SE 24 39 13 21 1009.2 1009.2 0.0
05/06:30pm 25.2 24.4 19.3 70 3.8 SSE 22 37 12 20 1009.0 1009.0 0.0
05/06:00pm 25.5 24.4 19.5 69 3.9 SE 24 41 13 22 1008.7 1008.7 0.0
05/05:30pm 25.3 25.6 20.4 74 3.2 SSE 19 33 10 18 1008.3 1008.3 0.0
05/05:00pm 25.1 25.3 20.5 75 3.0 SE 20 41 11 22 1008.1 1008.1 0.0
05/04:30pm 25.8 25.9 20.3 71 3.6 SE 20 37 11 20 1007.9 1007.9 0.0
05/04:00pm 25.8 26.4 21.0 75 3.2 SE 19 35 10 19 1007.7 1007.7 0.0
05/03:30pm 26.0 27.0 20.2 70 3.8 SSE 15 20 8 11 1007.9 1007.9 0.0
05/03:00pm 24.9 24.6 21.1 79 2.5 SE 24 39 13 21 1007.8 1007.8 0.0
05/02:30pm 27.4 26.7 19.6 62 5.1 SE 22 35 12 19 1007.9 1007.9 0.0
05/02:00pm 26.9 27.3 19.8 65 4.6 SSE 17 32 9 17 1008.3 1008.3 0.0
05/01:30pm 26.6 26.8 20.2 68 4.2 SE 19 32 10 17 1008.4 1008.4 0.0
05/01:00pm 25.9 26.3 19.9 69 3.9 SSE 17 30 9 16 1008.9 1008.9 0.0
05/12:30pm 26.6 27.8 20.0 67 4.3 SSE 13 24 7 13 1008.8 1008.8 0.0

Latest Capital City Observations: Canberra | Sydney | Melbourne | Brisbane | Adelaide | Perth | Hobart | Darwin

Other Formats:

Comma delimited format used in spreadsheet applications
http://www.bom.gov.au/fwo/IDQ60901/IDQ60901.94578.axf

JavaScript Object Notation format (JSON) in row-major order
http://www.bom.gov.au/fwo/IDQ60901/IDQ60901.94578.json